createdAt,value
2022-12-19T00:00:02.298Z,36.70
2022-12-19T00:01:22.834Z,36.70
2022-12-19T00:02:26.121Z,36.40
2022-12-19T00:03:28.760Z,36.20
2022-12-19T00:04:31.191Z,36.60
2022-12-19T00:05:37.782Z,36.40
2022-12-19T00:06:41.913Z,36.60
2022-12-19T00:07:48.749Z,36.90
2022-12-19T00:08:52.635Z,36.30
2022-12-19T00:09:54.942Z,35.90
2022-12-19T00:11:00.323Z,35.60
2022-12-19T00:12:02.991Z,35.50
2022-12-19T00:13:05.344Z,35.60
2022-12-19T00:14:10.193Z,35.60
2022-12-19T00:15:12.514Z,35.70
2022-12-19T00:16:19.062Z,35.50
2022-12-19T00:17:21.502Z,35.40
2022-12-19T00:18:23.830Z,35.40
2022-12-19T00:19:26.190Z,35.40
2022-12-19T00:20:28.769Z,35.40
2022-12-19T00:21:34.695Z,35.30
2022-12-19T00:22:37.486Z,35.40
2022-12-19T00:23:40.486Z,35.40
2022-12-19T00:24:42.911Z,35.50
2022-12-19T00:25:45.260Z,35.40
2022-12-19T00:26:48.317Z,35.50
2022-12-19T00:27:50.654Z,35.60
2022-12-19T00:28:55.825Z,35.60
2022-12-19T00:30:00.017Z,35.50
2022-12-19T00:31:03.016Z,35.70
2022-12-19T00:32:05.469Z,35.60
2022-12-19T00:33:07.861Z,35.50
2022-12-19T00:34:10.702Z,35.60
2022-12-19T00:35:15.589Z,35.80
2022-12-19T00:36:23.442Z,35.50
2022-12-19T00:37:25.810Z,35.80
2022-12-19T00:38:30.178Z,35.70
2022-12-19T00:39:32.523Z,35.50
2022-12-19T00:40:34.901Z,35.50
2022-12-19T00:41:41.621Z,35.70
2022-12-19T00:42:48.669Z,35.80
2022-12-19T00:44:02.332Z,35.70
2022-12-19T00:45:07.356Z,35.60
2022-12-19T00:46:12.608Z,35.50
2022-12-19T00:47:15.938Z,35.30
2022-12-19T00:48:18.521Z,35.30
2022-12-19T00:49:21.994Z,35.40
2022-12-19T00:50:24.417Z,35.50
2022-12-19T00:51:29.000Z,35.90
2022-12-19T00:52:31.295Z,35.60
2022-12-19T00:53:35.531Z,36.00
2022-12-19T00:54:38.653Z,35.60
2022-12-19T00:55:41.215Z,35.70
2022-12-19T00:56:44.576Z,35.60
2022-12-19T00:57:47.205Z,35.50
2022-12-19T00:58:50.306Z,35.50
2022-12-19T00:59:52.593Z,35.50
2022-12-19T01:00:55.033Z,35.70
2022-12-19T01:01:57.781Z,35.70
2022-12-19T01:03:01.216Z,35.60
2022-12-19T01:05:30.868Z,35.60
2022-12-19T01:06:33.671Z,35.50
2022-12-19T01:07:37.450Z,35.60
2022-12-19T01:08:40.044Z,35.70
2022-12-19T01:09:42.395Z,35.70
2022-12-19T01:10:46.666Z,35.50
2022-12-19T01:12:25.283Z,35.60
2022-12-19T01:13:32.525Z,35.70
2022-12-19T01:14:35.678Z,36.20
2022-12-19T01:15:40.582Z,35.70
2022-12-19T01:16:42.908Z,36.00
2022-12-19T01:17:45.417Z,36.40
2022-12-19T01:18:47.742Z,35.90
2022-12-19T01:19:50.069Z,36.00
2022-12-19T01:20:52.523Z,36.40
2022-12-19T01:21:54.962Z,36.00
2022-12-19T01:22:58.885Z,35.80
2022-12-19T01:24:03.961Z,35.90
2022-12-19T01:25:06.741Z,35.80
2022-12-19T01:26:09.108Z,35.70
2022-12-19T01:27:11.435Z,35.80
2022-12-19T01:28:15.301Z,35.70
2022-12-19T01:29:19.130Z,35.80
2022-12-19T01:30:23.270Z,36.20
2022-12-19T01:31:27.009Z,36.40
2022-12-19T01:32:30.999Z,36.20
2022-12-19T01:33:35.762Z,36.20
2022-12-19T01:34:39.746Z,35.90
2022-12-19T01:35:43.248Z,36.10
2022-12-19T01:36:47.012Z,36.20
2022-12-19T01:37:51.128Z,35.60
2022-12-19T01:38:56.702Z,35.70
2022-12-19T01:39:59.020Z,35.60
2022-12-19T01:41:01.846Z,35.60
2022-12-19T01:42:19.612Z,35.50
2022-12-19T01:43:28.655Z,35.90
2022-12-19T01:44:31.978Z,35.80
2022-12-19T01:45:43.563Z,35.70
2022-12-19T01:46:48.602Z,35.60
2022-12-19T01:47:53.955Z,35.90
2022-12-19T01:48:57.398Z,35.70
2022-12-19T01:50:01.327Z,35.60
2022-12-19T01:51:19.743Z,35.70
2022-12-19T01:52:23.712Z,36.50
2022-12-19T01:53:30.182Z,35.90
2022-12-19T01:54:36.755Z,35.80
2022-12-19T01:55:41.089Z,35.80
2022-12-19T01:56:47.194Z,35.70
2022-12-19T01:57:49.623Z,35.70
2022-12-19T01:59:02.421Z,35.60
2022-12-19T02:00:12.513Z,35.60
2022-12-19T02:01:17.894Z,35.70
2022-12-19T02:02:26.616Z,35.90
2022-12-19T02:03:31.885Z,36.10
2022-12-19T02:04:34.844Z,35.80
2022-12-19T02:05:39.072Z,35.90
2022-12-19T02:06:42.952Z,36.00
2022-12-19T02:07:46.599Z,35.70
2022-12-19T02:08:49.367Z,35.60
2022-12-19T02:09:56.985Z,35.90
2022-12-19T02:11:03.536Z,35.80
2022-12-19T02:12:07.772Z,36.00
2022-12-19T02:13:12.755Z,36.10
2022-12-19T02:14:16.667Z,35.80
2022-12-19T02:15:20.884Z,35.70
2022-12-19T02:16:33.942Z,35.80
2022-12-19T02:17:52.770Z,35.80
2022-12-19T02:19:12.411Z,35.80
2022-12-19T02:20:26.477Z,35.70
2022-12-19T02:21:54.545Z,35.50
2022-12-19T02:23:00.564Z,35.60
2022-12-19T02:24:26.668Z,35.60
2022-12-19T02:25:56.828Z,35.60
2022-12-19T02:27:30.255Z,35.90
2022-12-19T02:29:12.285Z,36.00
2022-12-19T02:30:35.738Z,35.70
2022-12-19T02:32:03.802Z,35.80
2022-12-19T02:33:17.407Z,35.80
2022-12-19T02:34:53.079Z,35.80
2022-12-19T02:36:05.259Z,35.70
2022-12-19T02:37:12.636Z,36.00
2022-12-19T02:38:27.010Z,35.80
2022-12-19T02:39:55.197Z,35.70
2022-12-19T02:41:05.383Z,35.70
2022-12-19T02:42:11.634Z,36.00
2022-12-19T02:43:15.745Z,36.10
2022-12-19T02:44:28.757Z,36.00
2022-12-19T02:45:35.804Z,36.00
2022-12-19T02:46:38.605Z,36.10
2022-12-19T02:47:42.353Z,36.10
2022-12-19T02:48:45.588Z,36.10
2022-12-19T02:49:48.635Z,36.10
2022-12-19T02:50:51.917Z,36.20
2022-12-19T02:51:54.727Z,36.50
2022-12-19T02:52:57.956Z,36.40
2022-12-19T02:54:00.353Z,36.50
2022-12-19T02:55:09.554Z,36.40
2022-12-19T02:56:28.556Z,36.60
2022-12-19T02:57:49.925Z,36.50
2022-12-19T02:58:58.169Z,36.40
2022-12-19T03:00:07.865Z,36.60
2022-12-19T03:01:40.196Z,36.40
2022-12-19T03:03:15.491Z,36.40
2022-12-19T03:04:40.179Z,36.50
2022-12-19T03:06:27.389Z,36.60
2022-12-19T03:07:34.108Z,36.80
2022-12-19T03:09:08.554Z,36.70
2022-12-19T03:10:38.898Z,36.70
2022-12-19T03:11:42.550Z,36.80
2022-12-19T03:12:57.542Z,36.70
2022-12-19T03:14:05.714Z,36.80
2022-12-19T03:15:11.948Z,36.80
2022-12-19T03:16:15.164Z,36.90
2022-12-19T03:17:20.729Z,36.90
2022-12-19T03:18:23.809Z,37.20
2022-12-19T03:19:26.226Z,37.20
2022-12-19T03:20:49.716Z,37.40
2022-12-19T03:21:52.870Z,37.20
2022-12-19T03:22:55.205Z,37.20
2022-12-19T03:23:58.715Z,37.00
2022-12-19T03:25:01.727Z,36.90
2022-12-19T03:26:19.634Z,37.00
2022-12-19T03:27:28.406Z,36.90
2022-12-19T03:28:42.776Z,36.90
2022-12-19T03:29:54.904Z,36.90
2022-12-19T03:30:59.691Z,36.90
2022-12-19T03:32:07.082Z,37.10
2022-12-19T03:33:11.893Z,37.00
2022-12-19T03:34:25.264Z,36.90
2022-12-19T03:35:31.686Z,36.80
2022-12-19T03:36:41.922Z,37.00
2022-12-19T03:37:46.703Z,37.00
2022-12-19T03:38:49.844Z,36.80
2022-12-19T03:39:57.972Z,36.80
2022-12-19T03:41:02.547Z,36.90
2022-12-19T03:42:25.299Z,36.80
2022-12-19T03:43:29.853Z,36.80
2022-12-19T03:44:35.527Z,36.70
2022-12-19T03:45:59.332Z,36.80
2022-12-19T03:47:11.346Z,36.70
2022-12-19T03:48:38.114Z,36.80
2022-12-19T03:49:40.688Z,36.70
2022-12-19T03:51:04.597Z,36.90
2022-12-19T03:52:22.198Z,36.90
2022-12-19T03:53:42.919Z,36.80
2022-12-19T03:55:12.603Z,37.00
2022-12-19T03:56:46.113Z,37.00
2022-12-19T03:58:12.090Z,37.00
2022-12-19T03:59:25.207Z,37.00
2022-12-19T04:00:28.416Z,36.90
2022-12-19T04:01:33.876Z,37.00
2022-12-19T04:02:38.617Z,36.90
2022-12-19T04:03:41.103Z,37.10
2022-12-19T04:04:51.455Z,37.00
2022-12-19T04:05:54.799Z,37.10
2022-12-19T04:06:58.396Z,37.10
2022-12-19T04:08:07.979Z,37.00
2022-12-19T04:09:10.865Z,37.00
2022-12-19T04:10:19.240Z,37.10
2022-12-19T04:11:22.436Z,37.00
2022-12-19T04:12:33.239Z,37.00
2022-12-19T04:13:43.825Z,37.00
2022-12-19T04:14:47.121Z,35.80
2022-12-19T04:16:18.468Z,34.90
2022-12-19T04:17:50.958Z,35.20
2022-12-19T04:18:59.500Z,36.00
2022-12-19T04:20:16.977Z,36.70
2022-12-19T04:21:25.836Z,38.40
2022-12-19T04:22:50.909Z,38.50
2022-12-19T04:24:00.587Z,38.90
2022-12-19T04:25:11.277Z,38.90
2022-12-19T04:26:14.847Z,39.40
2022-12-19T04:27:18.334Z,39.40
2022-12-19T04:28:26.865Z,39.20
2022-12-19T04:29:34.090Z,38.80
2022-12-19T04:30:39.032Z,39.00
2022-12-19T04:31:42.187Z,38.80
2022-12-19T04:32:45.210Z,38.60
2022-12-19T04:33:47.761Z,38.60
2022-12-19T04:34:50.284Z,38.50
2022-12-19T04:35:52.815Z,38.40
2022-12-19T04:36:55.442Z,38.30
2022-12-19T04:37:58.016Z,38.10
2022-12-19T04:39:00.376Z,38.20
2022-12-19T04:40:03.259Z,37.90
2022-12-19T04:41:06.043Z,34.50
2022-12-19T04:42:08.416Z,33.40
2022-12-19T04:43:10.920Z,35.10
2022-12-19T04:44:13.728Z,37.30
2022-12-19T04:45:17.379Z,37.90
2022-12-19T04:46:19.766Z,38.00
2022-12-19T04:47:22.179Z,38.10
2022-12-19T04:48:24.969Z,38.20
2022-12-19T04:49:27.885Z,38.30
2022-12-19T04:50:32.230Z,38.20
2022-12-19T04:51:34.588Z,38.20
2022-12-19T04:52:37.004Z,38.30
2022-12-19T04:53:39.423Z,38.40
2022-12-19T04:54:41.745Z,37.70
2022-12-19T04:55:44.242Z,36.00
2022-12-19T04:56:47.313Z,35.80
2022-12-19T04:57:49.809Z,36.50
2022-12-19T04:59:10.385Z,38.30
2022-12-19T05:00:13.970Z,38.70
2022-12-19T05:01:18.435Z,39.00
2022-12-19T05:02:21.012Z,39.00
2022-12-19T05:03:23.730Z,39.10
2022-12-19T05:04:26.726Z,39.00
2022-12-19T05:05:29.972Z,39.00
2022-12-19T05:06:32.681Z,39.10
2022-12-19T05:07:35.236Z,39.00
2022-12-19T05:08:39.829Z,38.90
2022-12-19T05:09:42.272Z,38.80
2022-12-19T05:10:44.731Z,38.70
2022-12-19T05:11:47.276Z,38.80
2022-12-19T05:12:49.633Z,38.60
2022-12-19T05:13:52.125Z,38.50
2022-12-19T05:14:54.602Z,38.40
2022-12-19T05:16:08.675Z,38.40
2022-12-19T05:17:11.163Z,38.40
2022-12-19T05:18:13.539Z,38.40
2022-12-19T05:19:16.870Z,38.50
2022-12-19T05:20:19.328Z,38.50
2022-12-19T05:21:22.681Z,38.50
2022-12-19T05:22:28.139Z,38.80
2022-12-19T05:23:30.783Z,39.10
2022-12-19T05:24:33.647Z,39.30
2022-12-19T05:25:36.040Z,38.70
2022-12-19T05:26:38.403Z,39.20
2022-12-19T05:27:40.845Z,35.50
2022-12-19T05:28:43.300Z,35.00
2022-12-19T05:29:45.719Z,36.70
2022-12-19T05:30:52.269Z,37.80
2022-12-19T05:31:55.063Z,39.20
2022-12-19T05:32:57.407Z,38.60
2022-12-19T05:33:59.717Z,39.10
2022-12-19T05:35:02.071Z,38.90
2022-12-19T05:36:05.031Z,38.10
2022-12-19T05:37:07.332Z,39.30
2022-12-19T05:38:09.758Z,38.40
2022-12-19T05:39:12.226Z,38.40
2022-12-19T05:40:14.754Z,38.30
2022-12-19T05:41:19.372Z,38.30
2022-12-19T05:42:21.694Z,38.30
2022-12-19T05:43:24.460Z,38.10
2022-12-19T05:44:26.784Z,38.20
2022-12-19T05:45:29.742Z,38.10
2022-12-19T05:46:32.337Z,38.10
2022-12-19T05:47:35.173Z,38.10
2022-12-19T05:48:38.014Z,38.60
2022-12-19T05:49:40.363Z,38.20
2022-12-19T05:50:48.009Z,38.10
2022-12-19T05:51:50.339Z,38.00
2022-12-19T05:52:52.679Z,38.00
2022-12-19T05:53:55.140Z,38.00
2022-12-19T05:54:58.404Z,38.00
2022-12-19T05:56:13.266Z,38.00
2022-12-19T05:57:16.737Z,38.00
2022-12-19T05:58:22.518Z,37.90
2022-12-19T06:01:19.025Z,38.00
2022-12-19T06:02:21.522Z,37.90
2022-12-19T06:03:24.090Z,37.90
2022-12-19T06:04:26.412Z,38.00
2022-12-19T06:05:29.311Z,37.90
2022-12-19T06:06:31.993Z,37.90
2022-12-19T06:07:35.356Z,38.00
2022-12-19T06:08:38.091Z,37.90
2022-12-19T06:09:40.356Z,34.10
2022-12-19T06:10:42.671Z,34.30
2022-12-19T06:11:45.009Z,36.30
2022-12-19T06:12:47.298Z,37.90
2022-12-19T06:13:49.814Z,39.50
2022-12-19T06:14:52.179Z,39.70
2022-12-19T06:16:05.585Z,38.60
2022-12-19T06:17:07.940Z,39.20
2022-12-19T06:18:10.258Z,38.70
2022-12-19T06:19:14.826Z,38.60
2022-12-19T06:20:17.899Z,38.40
2022-12-19T06:21:22.590Z,38.30
2022-12-19T06:22:24.918Z,38.20
2022-12-19T06:23:29.639Z,38.10
2022-12-19T06:24:32.166Z,38.10
2022-12-19T06:25:37.779Z,38.10
2022-12-19T06:26:40.704Z,38.50
2022-12-19T06:27:43.134Z,37.90
2022-12-19T06:28:45.474Z,38.00
2022-12-19T06:29:47.786Z,37.90
2022-12-19T06:30:50.132Z,37.90
2022-12-19T06:31:52.900Z,37.90
2022-12-19T06:32:55.914Z,37.90
2022-12-19T06:33:59.027Z,37.90
2022-12-19T06:35:05.038Z,37.80
2022-12-19T06:36:14.292Z,37.80
2022-12-19T06:37:16.790Z,37.90
2022-12-19T06:38:19.116Z,37.80
2022-12-19T06:39:22.354Z,37.80
2022-12-19T06:41:03.162Z,34.00
2022-12-19T06:42:23.840Z,35.10
2022-12-19T06:43:26.472Z,37.00
2022-12-19T06:44:28.762Z,38.10
2022-12-19T06:45:31.520Z,38.30
2022-12-19T06:46:34.460Z,38.40
2022-12-19T06:47:36.882Z,38.60
2022-12-19T06:48:39.218Z,38.80
2022-12-19T06:49:41.548Z,39.10
2022-12-19T06:50:43.847Z,39.10
2022-12-19T06:51:46.542Z,39.00
2022-12-19T06:52:48.934Z,38.90
2022-12-19T06:53:51.737Z,38.90
2022-12-19T06:54:54.009Z,38.70
2022-12-19T06:55:58.482Z,38.60
2022-12-19T06:57:01.330Z,38.60
2022-12-19T06:58:04.204Z,38.70
2022-12-19T06:59:08.109Z,38.50
2022-12-19T07:00:11.342Z,38.60
2022-12-19T07:01:52.775Z,38.60
2022-12-19T07:02:57.355Z,38.30
2022-12-19T07:03:59.880Z,38.40
2022-12-19T07:05:05.822Z,38.30
2022-12-19T07:06:08.451Z,38.40
2022-12-19T07:07:10.853Z,38.20
2022-12-19T07:08:13.651Z,38.50
2022-12-19T07:09:16.268Z,38.50
2022-12-19T07:10:18.816Z,38.40
2022-12-19T07:11:21.212Z,38.30
2022-12-19T07:12:23.538Z,38.20
2022-12-19T07:13:27.366Z,38.20
2022-12-19T07:14:29.782Z,38.20
2022-12-19T07:15:34.909Z,38.20
2022-12-19T07:16:37.417Z,38.20
2022-12-19T07:17:39.883Z,38.10
2022-12-19T07:18:43.425Z,38.10
2022-12-19T07:19:45.811Z,38.00
2022-12-19T07:20:48.213Z,38.00
2022-12-19T07:21:50.586Z,38.00
2022-12-19T07:22:53.146Z,38.00
2022-12-19T07:23:55.867Z,37.90
2022-12-19T07:24:59.408Z,38.00
2022-12-19T07:26:01.920Z,38.00
2022-12-19T07:27:08.149Z,38.00
2022-12-19T07:28:10.643Z,38.00
2022-12-19T07:29:13.900Z,38.10
2022-12-19T07:30:16.236Z,36.90
2022-12-19T07:31:18.592Z,33.70
2022-12-19T07:32:21.762Z,35.00
2022-12-19T07:33:24.102Z,35.80
2022-12-19T07:34:26.502Z,37.30
2022-12-19T07:35:28.838Z,37.70
2022-12-19T07:36:31.390Z,38.00
2022-12-19T07:37:33.999Z,38.10
2022-12-19T07:38:36.902Z,38.30
2022-12-19T07:39:39.243Z,38.70
2022-12-19T07:40:41.824Z,38.90
2022-12-19T07:41:44.156Z,39.20
2022-12-19T07:42:46.506Z,39.10
2022-12-19T07:43:49.200Z,39.10
2022-12-19T07:44:51.544Z,39.20
2022-12-19T07:45:55.396Z,39.00
2022-12-19T07:46:57.785Z,38.90
2022-12-19T07:48:01.507Z,38.80
2022-12-19T07:49:03.845Z,38.70
2022-12-19T07:50:06.546Z,38.50
2022-12-19T07:51:08.862Z,38.50
2022-12-19T07:52:11.217Z,38.30
2022-12-19T07:53:13.535Z,38.20
2022-12-19T07:54:15.875Z,38.10
2022-12-19T07:55:18.189Z,38.20
2022-12-19T07:56:20.569Z,38.10
2022-12-19T07:57:23.045Z,38.20
2022-12-19T07:58:27.850Z,38.20
2022-12-19T07:59:35.637Z,38.10
2022-12-19T08:00:41.397Z,38.10
2022-12-19T08:01:43.766Z,38.10
2022-12-19T08:02:46.739Z,38.00
2022-12-19T08:03:49.076Z,38.00
2022-12-19T08:04:51.496Z,38.10
2022-12-19T08:05:58.736Z,38.00
2022-12-19T08:07:02.302Z,38.00
2022-12-19T08:08:04.838Z,37.90
2022-12-19T08:09:07.126Z,38.00
2022-12-19T08:10:11.489Z,37.90
2022-12-19T08:11:17.415Z,37.90
2022-12-19T08:12:19.955Z,37.90
2022-12-19T08:13:22.428Z,38.00
2022-12-19T08:14:25.059Z,37.90
2022-12-19T08:15:27.407Z,38.00
2022-12-19T08:16:29.873Z,36.10
2022-12-19T08:17:32.479Z,33.60
2022-12-19T08:18:34.905Z,34.40
2022-12-19T08:19:37.265Z,36.90
2022-12-19T08:20:39.617Z,37.60
2022-12-19T08:21:41.949Z,38.30
2022-12-19T08:22:44.577Z,38.10
2022-12-19T08:23:47.053Z,38.20
2022-12-19T08:24:49.430Z,38.70
2022-12-19T08:26:10.451Z,39.00
2022-12-19T08:27:12.808Z,38.90
2022-12-19T08:28:15.473Z,38.70
2022-12-19T08:29:17.943Z,38.70
2022-12-19T08:30:20.326Z,38.60
2022-12-19T08:31:25.077Z,38.60
2022-12-19T08:32:29.063Z,38.50
2022-12-19T08:33:31.725Z,38.40
2022-12-19T08:34:34.140Z,38.40
2022-12-19T08:35:37.469Z,38.40
2022-12-19T08:36:39.825Z,38.70
2022-12-19T08:37:42.339Z,38.70
2022-12-19T08:38:45.174Z,38.70
2022-12-19T08:39:47.706Z,38.60
2022-12-19T08:40:54.538Z,38.50
2022-12-19T08:41:57.031Z,38.40
2022-12-19T08:42:59.471Z,38.40
2022-12-19T08:44:02.193Z,38.50
2022-12-19T08:45:05.428Z,38.40
2022-12-19T08:46:09.261Z,38.70
2022-12-19T08:47:11.758Z,38.40
2022-12-19T08:48:14.156Z,38.30
2022-12-19T08:49:16.681Z,38.30
2022-12-19T08:50:19.114Z,34.60
2022-12-19T08:51:21.483Z,34.00
2022-12-19T08:52:24.629Z,34.90
2022-12-19T08:53:28.666Z,37.40
2022-12-19T08:54:31.030Z,37.80
2022-12-19T08:55:35.617Z,38.20
2022-12-19T08:56:38.393Z,38.80
2022-12-19T08:57:48.236Z,39.20
2022-12-19T08:58:53.622Z,39.50
2022-12-19T08:59:55.941Z,39.40
2022-12-19T09:01:05.289Z,39.30
2022-12-19T09:02:10.782Z,39.30
2022-12-19T09:03:13.501Z,39.20
2022-12-19T09:05:26.055Z,39.30
2022-12-19T09:06:05.461Z,39.20
2022-12-19T09:07:01.818Z,39.10
2022-12-19T09:08:04.614Z,39.10
2022-12-19T09:09:07.195Z,39.10
2022-12-19T09:10:09.662Z,39.10
2022-12-19T09:11:14.410Z,39.10
2022-12-19T09:12:16.867Z,39.20
2022-12-19T09:13:19.265Z,38.50
2022-12-19T09:14:21.786Z,33.80
2022-12-19T09:15:24.535Z,34.90
2022-12-19T09:16:28.382Z,37.00
2022-12-19T09:17:30.757Z,37.60
2022-12-19T09:18:34.677Z,37.90
2022-12-19T09:19:37.170Z,38.50
2022-12-19T09:20:40.097Z,39.00
2022-12-19T09:21:42.629Z,39.40
2022-12-19T09:22:45.017Z,39.40
2022-12-19T09:23:52.984Z,39.30
2022-12-19T09:24:55.366Z,39.40
2022-12-19T09:26:09.556Z,39.30
2022-12-19T09:27:12.032Z,39.30
2022-12-19T09:28:29.707Z,39.20
2022-12-19T09:29:35.335Z,39.50
2022-12-19T09:30:38.407Z,39.40
2022-12-19T09:31:41.136Z,39.30
2022-12-19T09:32:43.921Z,39.20
2022-12-19T09:33:47.327Z,39.10
2022-12-19T09:34:49.787Z,39.00
2022-12-19T09:35:53.142Z,39.00
2022-12-19T09:36:59.092Z,39.00
2022-12-19T09:38:01.749Z,39.00
2022-12-19T09:39:04.287Z,38.90
2022-12-19T09:40:07.459Z,38.80
2022-12-19T09:41:31.787Z,38.80
2022-12-19T09:42:57.855Z,38.80
2022-12-19T09:44:21.850Z,38.90
2022-12-19T09:45:42.691Z,38.80
2022-12-19T09:46:52.006Z,38.90
2022-12-19T09:47:57.633Z,38.80
2022-12-19T09:49:01.864Z,38.80
2022-12-19T09:50:31.363Z,38.80
2022-12-19T09:51:58.729Z,38.90
2022-12-19T09:53:15.836Z,38.90
2022-12-19T09:54:24.747Z,38.80
2022-12-19T09:55:41.037Z,38.80
2022-12-19T09:56:46.034Z,38.80
2022-12-19T09:58:01.229Z,38.90
2022-12-19T09:59:47.939Z,39.00
2022-12-19T10:01:00.027Z,39.00
2022-12-19T10:02:24.703Z,39.00
2022-12-19T10:03:40.781Z,39.00
2022-12-19T10:04:51.684Z,39.10
2022-12-19T10:07:11.503Z,39.10
2022-12-19T10:07:59.654Z,39.30
2022-12-19T10:10:34.025Z,39.20
2022-12-19T10:12:40.083Z,37.50
2022-12-19T10:12:42.887Z,37.70
2022-12-19T10:14:16.261Z,37.80
2022-12-19T10:15:35.687Z,37.80
2022-12-19T10:17:22.137Z,38.10
2022-12-19T10:18:24.601Z,38.80
2022-12-19T10:19:31.568Z,39.20
2022-12-19T10:20:48.405Z,39.40
2022-12-19T10:22:19.539Z,39.30
2022-12-19T10:23:30.863Z,39.30
2022-12-19T10:25:08.062Z,39.30
2022-12-19T10:26:20.666Z,39.30
2022-12-19T10:27:59.559Z,39.30
2022-12-19T10:29:47.120Z,39.30
2022-12-19T10:31:11.466Z,39.30
2022-12-19T10:32:24.169Z,39.50
2022-12-19T10:33:34.542Z,39.30
2022-12-19T10:34:43.305Z,39.30
2022-12-19T10:35:49.235Z,39.40
2022-12-19T10:37:28.866Z,39.40
2022-12-19T10:38:39.789Z,39.40
2022-12-19T10:40:24.767Z,39.40
2022-12-19T10:41:32.527Z,39.30
2022-12-19T10:42:38.243Z,39.40
2022-12-19T10:43:57.423Z,39.30
2022-12-19T10:45:04.570Z,39.40
2022-12-19T10:46:37.156Z,39.00
2022-12-19T10:47:41.047Z,38.70
2022-12-19T10:48:43.401Z,39.40
2022-12-19T10:49:45.779Z,39.50
2022-12-19T10:50:49.237Z,39.40
2022-12-19T10:52:00.369Z,39.40
2022-12-19T10:53:07.662Z,39.50
2022-12-19T10:54:10.126Z,39.40
2022-12-19T10:55:31.442Z,39.40
2022-12-19T10:56:37.703Z,39.40
2022-12-19T10:57:40.574Z,39.40
2022-12-19T10:58:45.742Z,39.50
2022-12-19T11:00:04.776Z,39.80
2022-12-19T11:01:40.077Z,39.70
2022-12-19T11:02:48.292Z,39.50
2022-12-19T11:04:22.645Z,39.40
2022-12-19T11:05:40.129Z,39.40
2022-12-19T11:06:49.880Z,39.60
2022-12-19T11:08:02.509Z,39.60
2022-12-19T11:09:24.995Z,39.70
2022-12-19T11:13:14.807Z,39.80
2022-12-19T11:15:50.441Z,39.80
2022-12-19T11:18:08.686Z,39.70
2022-12-19T11:19:13.501Z,39.80
2022-12-19T11:23:22.252Z,39.70
2022-12-19T11:24:30.616Z,39.70
2022-12-19T11:29:19.252Z,39.90
2022-12-19T11:29:27.343Z,39.60
2022-12-19T11:29:30.746Z,39.70
2022-12-19T11:29:31.732Z,39.70
2022-12-19T11:30:05.572Z,39.70
2022-12-19T11:30:40.813Z,39.60
2022-12-19T11:30:43.171Z,39.70
2022-12-19T11:32:50.476Z,39.70
2022-12-19T11:34:05.260Z,39.70
2022-12-19T11:35:22.004Z,39.70
2022-12-19T11:36:34.819Z,39.60
2022-12-19T11:37:44.358Z,39.70
2022-12-19T11:38:53.309Z,39.70
2022-12-19T11:40:01.849Z,39.60
2022-12-19T11:41:12.939Z,39.60
2022-12-19T11:42:24.840Z,39.70
2022-12-19T11:43:53.297Z,39.70
2022-12-19T11:45:02.802Z,40.40
2022-12-19T11:46:16.211Z,40.00
2022-12-19T11:47:40.427Z,39.90
2022-12-19T11:48:55.075Z,40.00
2022-12-19T11:50:11.172Z,39.90
2022-12-19T11:51:28.784Z,39.90
2022-12-19T11:53:05.859Z,39.90
2022-12-19T11:54:24.017Z,39.90
2022-12-19T11:55:33.048Z,39.80
2022-12-19T11:56:35.566Z,39.90
2022-12-19T11:57:39.524Z,39.80
2022-12-19T11:58:52.703Z,39.80
2022-12-19T11:59:59.825Z,39.80
2022-12-19T12:01:34.191Z,39.80
2022-12-19T12:03:10.193Z,39.80
2022-12-19T12:04:27.071Z,39.80
2022-12-19T12:05:43.662Z,39.80
2022-12-19T12:06:54.203Z,39.80
2022-12-19T12:08:49.414Z,39.80
2022-12-19T12:13:47.739Z,39.90
2022-12-19T12:15:56.099Z,39.80
2022-12-19T12:20:12.824Z,39.80
2022-12-19T12:20:22.790Z,39.80
2022-12-19T12:23:06.662Z,39.80
2022-12-19T12:30:43.379Z,40.10
2022-12-19T12:31:13.895Z,40.10
2022-12-19T12:31:20.455Z,38.30
2022-12-19T12:31:32.466Z,38.80
2022-12-19T12:31:49.684Z,39.90
2022-12-19T12:31:50.279Z,40.10
2022-12-19T12:31:55.326Z,40.00
2022-12-19T12:32:03.368Z,39.90
2022-12-19T12:35:50.035Z,39.90
2022-12-19T12:35:52.125Z,39.80
2022-12-19T12:35:54.548Z,39.80
2022-12-19T12:38:19.049Z,39.90
2022-12-19T12:39:24.313Z,39.90
2022-12-19T12:41:14.478Z,39.90
2022-12-19T12:42:47.574Z,40.00
2022-12-19T12:43:58.739Z,40.10
2022-12-19T12:45:13.186Z,40.10
2022-12-19T12:46:31.023Z,40.10
2022-12-19T12:47:33.583Z,40.20
2022-12-19T12:48:39.101Z,40.30
2022-12-19T12:49:45.307Z,40.20
2022-12-19T12:50:54.967Z,40.30
2022-12-19T12:52:00.479Z,40.20
2022-12-19T12:53:09.219Z,40.30
2022-12-19T12:54:14.840Z,40.30
2022-12-19T12:55:25.875Z,40.30
2022-12-19T12:56:28.888Z,40.10
2022-12-19T12:57:37.290Z,40.30
2022-12-19T12:58:43.874Z,40.30
2022-12-19T12:59:47.941Z,40.40
2022-12-19T13:01:17.517Z,40.40
2022-12-19T13:02:25.259Z,40.80
2022-12-19T13:03:29.350Z,41.00
2022-12-19T13:04:35.371Z,40.60
2022-12-19T13:05:43.470Z,40.40
2022-12-19T13:06:51.460Z,40.50
2022-12-19T13:07:55.118Z,40.10
2022-12-19T13:09:09.609Z,39.50
2022-12-19T13:10:17.206Z,39.40
2022-12-19T13:11:38.301Z,38.80
2022-12-19T13:13:15.822Z,39.60
2022-12-19T13:14:39.184Z,40.10
2022-12-19T13:15:44.261Z,40.40
2022-12-19T13:16:50.173Z,40.30
2022-12-19T13:17:52.755Z,40.30
2022-12-19T13:19:19.708Z,40.30
2022-12-19T13:20:26.570Z,40.30
2022-12-19T13:22:05.396Z,40.30
2022-12-19T13:23:22.737Z,40.40
2022-12-19T13:24:25.082Z,40.30
2022-12-19T13:25:47.584Z,40.30
2022-12-19T13:26:52.249Z,40.30
2022-12-19T13:28:01.762Z,40.40
2022-12-19T13:29:30.852Z,40.30
2022-12-19T13:31:13.534Z,40.20
2022-12-19T13:32:11.463Z,40.40
2022-12-19T13:33:15.555Z,40.30
2022-12-19T13:34:19.315Z,40.40
2022-12-19T13:36:25.215Z,40.30
2022-12-19T13:39:56.638Z,40.20
2022-12-19T13:40:01.457Z,40.20
2022-12-19T13:40:33.222Z,40.40
2022-12-19T13:42:00.972Z,36.90
2022-12-19T13:43:42.529Z,39.00
2022-12-19T13:44:45.067Z,39.40
2022-12-19T13:45:59.512Z,39.30
2022-12-19T13:47:02.533Z,39.80
2022-12-19T13:48:05.565Z,39.30
2022-12-19T13:49:25.030Z,39.20
2022-12-19T13:50:38.037Z,39.30
2022-12-19T13:51:47.948Z,39.00
2022-12-19T13:52:53.662Z,40.00
2022-12-19T13:53:59.817Z,40.50
2022-12-19T13:55:03.286Z,40.60
2022-12-19T13:56:11.377Z,40.50
2022-12-19T13:57:30.341Z,40.50
2022-12-19T13:58:40.124Z,40.40
2022-12-19T13:59:59.659Z,40.60
2022-12-19T14:01:20.776Z,40.60
2022-12-19T14:02:44.174Z,40.10
2022-12-19T14:03:49.332Z,40.70
2022-12-19T14:04:52.047Z,41.10
2022-12-19T14:06:16.663Z,41.20
2022-12-19T14:07:39.261Z,41.40
2022-12-19T14:08:45.412Z,41.50
2022-12-19T14:11:33.790Z,41.50
2022-12-19T14:11:42.086Z,41.40
2022-12-19T14:13:57.268Z,41.50
2022-12-19T14:14:42.373Z,41.60
2022-12-19T14:15:52.225Z,41.60
2022-12-19T14:16:55.867Z,41.50
2022-12-19T14:18:44.565Z,41.50
2022-12-19T14:19:52.170Z,41.50
2022-12-19T14:22:04.748Z,41.60
2022-12-19T14:22:36.200Z,41.60
2022-12-19T14:23:43.905Z,41.40
2022-12-19T14:25:32.087Z,41.30
2022-12-19T14:28:19.921Z,41.60
2022-12-19T14:28:25.154Z,42.00
2022-12-19T14:30:28.572Z,41.60
2022-12-19T14:31:02.438Z,41.50
2022-12-19T14:32:41.993Z,41.20
2022-12-19T14:33:59.104Z,40.70
2022-12-19T14:36:10.440Z,41.20
2022-12-19T14:36:33.132Z,40.60
2022-12-19T14:38:37.383Z,40.70
2022-12-19T14:39:25.134Z,41.70
2022-12-19T14:40:32.910Z,41.30
2022-12-19T14:43:30.233Z,40.80
2022-12-19T14:43:58.049Z,40.50
2022-12-19T14:52:35.934Z,40.80
2022-12-19T14:54:15.600Z,41.00
2022-12-19T14:54:15.968Z,40.80
2022-12-19T14:54:21.093Z,40.60
2022-12-19T14:54:28.081Z,41.80
2022-12-19T14:54:34.887Z,40.80
2022-12-19T14:56:08.173Z,38.80
2022-12-19T14:56:59.610Z,39.50
2022-12-19T14:58:54.942Z,40.00
2022-12-19T14:59:48.567Z,40.20
2022-12-19T15:01:10.624Z,40.50
2022-12-19T15:02:27.959Z,40.60
2022-12-19T15:04:51.294Z,40.80
2022-12-19T15:05:18.862Z,40.60
2022-12-19T15:07:07.385Z,41.20
2022-12-19T15:07:51.796Z,41.10
2022-12-19T15:11:00.328Z,41.50
2022-12-19T15:11:07.500Z,41.00
2022-12-19T15:14:03.952Z,41.10
2022-12-19T15:14:56.395Z,41.00
2022-12-19T15:15:58.802Z,40.90
2022-12-19T15:17:31.815Z,40.80
2022-12-19T15:18:34.241Z,40.70